Time;durP1;ratioP1;P1;durP2;ratioP2;P2;SDS_P1;SDS_P2;PMS_P1;PMS_P2;Temp;Humidity;BMP_temperature;BMP_pressure;BME280_temperature;BME280_humidity;BME280_pressure;Samples;Min_cycle;Max_cycle;Signal;HPM_P1;HPM_P2
2021/05/09 00:02:01;;;;;;;7.40;6.80;;;13.20;99.90;;;;;;5068607;28;20232;-63
2021/05/09 00:04:26;;;;;;;7.70;7.10;;;13.20;99.90;;;;;;5067321;28;20216;-65
2021/05/09 00:06:54;;;;;;;6.80;6.20;;;13.20;99.90;;;;;;5079514;28;20640;-64
2021/05/09 00:09:19;;;;;;;7.07;6.57;;;13.20;99.90;;;;;;5067138;28;20180;-63
2021/05/09 00:11:45;;;;;;;7.03;6.53;;;13.20;99.90;;;;;;5066389;28;20423;-63
2021/05/09 00:14:10;;;;;;;7.13;6.63;;;13.20;99.90;;;;;;5073055;28;20185;-61
2021/05/09 00:16:37;;;;;;;6.73;6.23;;;13.20;99.90;;;;;;5082604;28;20212;-64
2021/05/09 00:19:04;;;;;;;7.27;6.50;;;13.20;99.90;;;;;;5073774;28;20588;-63
2021/05/09 00:21:30;;;;;;;7.17;6.57;;;13.20;99.90;;;;;;5072204;28;20487;-64
2021/05/09 00:23:55;;;;;;;6.87;6.37;;;13.20;99.90;;;;;;5081091;28;20961;-64
2021/05/09 00:26:21;;;;;;;6.90;6.20;;;13.20;99.90;;;;;;5067482;28;20201;-63
2021/05/09 00:28:46;;;;;;;7.07;6.50;;;13.20;99.90;;;;;;5081653;28;20185;-62
2021/05/09 00:31:12;;;;;;;7.00;6.30;;;13.20;99.90;;;;;;5084995;28;20255;-64
2021/05/09 00:33:37;;;;;;;7.00;6.40;;;13.30;99.90;;;;;;5086523;28;20196;-63
2021/05/09 00:36:03;;;;;;;6.73;6.13;;;13.30;99.90;;;;;;5069301;28;20192;-63
2021/05/09 00:38:29;;;;;;;6.90;6.40;;;13.30;99.90;;;;;;5080053;28;20181;-63
2021/05/09 00:40:54;;;;;;;6.50;6.00;;;13.30;99.90;;;;;;5075380;28;20590;-63
2021/05/09 00:43:20;;;;;;;6.60;6.10;;;13.30;99.90;;;;;;5081162;28;20336;-63
2021/05/09 00:45:46;;;;;;;7.10;6.60;;;13.30;99.90;;;;;;5077206;28;20247;-63
2021/05/09 00:48:11;;;;;;;6.80;6.30;;;13.30;99.90;;;;;;5067507;28;20952;-63
2021/05/09 00:50:38;;;;;;;7.20;6.60;;;13.20;99.90;;;;;;5067206;28;20545;-63
2021/05/09 00:53:08;;;;;;;6.40;5.90;;;13.20;99.90;;;;;;5076700;28;20650;-63
2021/05/09 00:55:37;;;;;;;6.97;6.47;;;13.20;99.90;;;;;;5060129;28;20435;-63
2021/05/09 00:58:03;;;;;;;6.70;6.20;;;13.10;99.90;;;;;;5084037;28;20441;-63
2021/05/09 01:00:29;;;;;;;6.63;6.13;;;13.10;99.90;;;;;;5076841;28;20846;-63
2021/05/09 01:02:55;;;;;;;6.87;6.37;;;13.00;99.90;;;;;;5073599;28;20466;-62
2021/05/09 01:05:21;;;;;;;6.50;5.90;;;13.00;99.90;;;;;;5084951;28;20442;-64
2021/05/09 01:07:47;;;;;;;6.37;5.80;;;12.90;99.90;;;;;;5072067;28;20526;-64
2021/05/09 01:10:14;;;;;;;7.33;6.70;;;12.90;99.90;;;;;;5087816;28;20652;-64
2021/05/09 01:12:40;;;;;;;6.37;5.77;;;12.80;99.90;;;;;;5071992;28;20499;-64
2021/05/09 01:15:07;;;;;;;6.60;6.00;;;12.80;99.90;;;;;;5081862;28;20423;-64
2021/05/09 01:17:33;;;;;;;7.53;6.87;;;12.70;99.90;;;;;;5069830;28;20485;-63
2021/05/09 01:20:22;;;;;;;6.60;6.10;;;12.60;99.90;;;;;;5083064;28;20423;-64
2021/05/09 01:22:47;;;;;;;6.23;5.77;;;12.60;99.90;;;;;;5067464;28;20506;-62
2021/05/09 01:25:13;;;;;;;7.13;6.53;;;12.60;99.90;;;;;;5076631;28;20580;-63
2021/05/09 01:27:39;;;;;;;6.97;6.47;;;12.50;99.90;;;;;;5069199;28;20185;-64
2021/05/09 01:30:07;;;;;;;6.10;5.70;;;12.60;99.90;;;;;;5070875;28;20707;-64
2021/05/09 01:32:32;;;;;;;6.93;6.33;;;12.60;99.90;;;;;;5084698;28;20427;-64
2021/05/09 01:34:58;;;;;;;6.93;6.33;;;12.60;99.90;;;;;;5070592;28;20426;-64
2021/05/09 01:37:24;;;;;;;7.07;6.47;;;12.60;99.90;;;;;;5075875;28;20192;-64
2021/05/09 01:39:49;;;;;;;6.90;6.40;;;12.60;99.90;;;;;;5077149;28;20173;-64
2021/05/09 01:42:15;;;;;;;6.50;6.03;;;12.60;99.90;;;;;;5083933;28;20181;-64
2021/05/09 01:44:54;;;;;;;7.00;6.40;;;12.60;99.90;;;;;;5070391;28;20217;-64
2021/05/09 01:47:20;;;;;;;7.50;6.80;;;12.60;99.90;;;;;;5074491;28;20181;-64
2021/05/09 01:49:46;;;;;;;6.77;6.27;;;12.70;99.90;;;;;;5074881;28;20435;-63
2021/05/09 01:52:12;;;;;;;6.80;6.30;;;12.70;99.90;;;;;;5069951;28;20810;-64
2021/05/09 01:54:37;;;;;;;6.90;6.30;;;12.70;99.90;;;;;;5082436;28;20218;-64
2021/05/09 01:57:03;;;;;;;6.47;6.07;;;12.80;99.90;;;;;;5068920;28;20193;-63
2021/05/09 01:59:29;;;;;;;6.70;6.20;;;12.80;99.90;;;;;;5075043;28;20234;-64
2021/05/09 02:01:54;;;;;;;6.60;6.10;;;12.80;99.90;;;;;;5082412;28;20466;-63
2021/05/09 02:04:20;;;;;;;5.90;5.50;;;12.80;99.90;;;;;;5086543;28;20213;-64
2021/05/09 02:06:45;;;;;;;6.40;5.90;;;12.80;99.90;;;;;;5057146;28;20182;-64
2021/05/09 02:09:11;;;;;;;7.43;6.33;;;12.70;99.90;;;;;;5064778;28;20195;-63
2021/05/09 02:11:37;;;;;;;6.93;6.23;;;12.70;99.90;;;;;;5066752;28;20177;-64
2021/05/09 02:14:02;;;;;;;6.93;6.33;;;12.70;99.90;;;;;;5071552;28;20212;-64
2021/05/09 02:16:28;;;;;;;6.57;6.17;;;12.60;99.90;;;;;;5076967;28;20861;-62
2021/05/09 02:18:53;;;;;;;6.87;6.17;;;12.60;99.90;;;;;;5072269;28;20457;-66
2021/05/09 02:21:19;;;;;;;7.03;6.33;;;12.60;99.90;;;;;;5074168;28;20658;-64
2021/05/09 02:23:45;;;;;;;9.63;6.40;;;12.50;99.90;;;;;;5068157;28;20197;-65
2021/05/09 02:26:10;;;;;;;6.77;6.20;;;12.50;99.90;;;;;;5071608;28;20222;-66
2021/05/09 02:28:36;;;;;;;6.97;6.37;;;12.50;99.90;;;;;;5080259;28;20185;-63
2021/05/09 02:31:01;;;;;;;6.57;5.97;;;12.50;99.90;;;;;;5070802;28;20223;-63
2021/05/09 02:33:27;;;;;;;6.80;6.30;;;12.40;99.90;;;;;;5078707;28;21209;-62
2021/05/09 02:35:52;;;;;;;6.40;5.90;;;12.40;99.90;;;;;;5074242;28;20727;-63
2021/05/09 02:38:18;;;;;;;6.73;6.20;;;12.40;99.90;;;;;;5079266;28;20895;-62
2021/05/09 02:40:44;;;;;;;8.20;6.70;;;12.40;99.90;;;;;;5076410;28;20635;-63
2021/05/09 02:43:14;;;;;;;6.80;6.30;;;12.30;99.90;;;;;;5072886;28;20205;-63
2021/05/09 02:45:39;;;;;;;6.93;6.33;;;12.30;99.90;;;;;;5069851;28;20605;-63
2021/05/09 02:48:05;;;;;;;6.67;6.00;;;12.20;99.90;;;;;;5069208;28;20426;-63
2021/05/09 02:50:30;;;;;;;6.43;5.93;;;12.20;99.90;;;;;;5073978;28;20212;-65
2021/05/09 02:52:56;;;;;;;7.73;7.10;;;12.20;99.90;;;;;;5088101;28;20235;-64
2021/05/09 02:55:22;;;;;;;7.00;6.47;;;12.20;99.90;;;;;;5071300;28;20242;-66
2021/05/09 02:57:47;;;;;;;7.23;6.60;;;12.20;99.90;;;;;;5070168;28;20689;-63
2021/05/09 03:00:13;;;;;;;6.87;6.27;;;12.20;99.90;;;;;;5071810;28;20251;-63
2021/05/09 03:02:39;;;;;;;6.80;6.30;;;12.20;99.90;;;;;;5069224;28;20208;-63
2021/05/09 03:05:05;;;;;;;6.90;6.40;;;12.20;99.90;;;;;;5070814;28;20446;-62
2021/05/09 03:07:30;;;;;;;7.33;6.80;;;12.20;99.90;;;;;;5069093;28;20692;-65
2021/05/09 03:09:56;;;;;;;7.17;6.57;;;12.20;99.90;;;;;;5070815;28;20504;-67
2021/05/09 03:12:21;;;;;;;7.20;6.70;;;12.20;99.90;;;;;;5072961;28;20310;-65
2021/05/09 03:14:47;;;;;;;7.47;6.87;;;12.10;99.90;;;;;;5072632;28;20180;-66
2021/05/09 03:17:12;;;;;;;7.80;7.20;;;12.10;99.90;;;;;;5072080;28;20190;-65
2021/05/09 03:19:38;;;;;;;7.87;7.27;;;12.00;99.90;;;;;;5072088;28;20207;-67
2021/05/09 03:22:03;;;;;;;7.90;7.30;;;12.00;99.90;;;;;;5073996;28;21003;-67
2021/05/09 03:24:29;;;;;;;7.57;6.97;;;11.90;99.90;;;;;;5068305;28;20207;-62
2021/05/09 03:26:54;;;;;;;7.80;7.20;;;11.90;99.90;;;;;;5074840;28;20185;-68
2021/05/09 03:29:20;;;;;;;7.67;7.07;;;11.90;99.90;;;;;;5074369;28;20188;-63
2021/05/09 03:31:46;;;;;;;7.97;7.37;;;11.80;99.90;;;;;;5079634;28;20184;-64
2021/05/09 03:34:11;;;;;;;7.90;7.20;;;11.80;99.90;;;;;;5078817;28;20199;-64
2021/05/09 03:36:37;;;;;;;7.40;6.70;;;11.80;99.90;;;;;;5082118;28;20268;-64
2021/05/09 03:39:02;;;;;;;7.60;6.97;;;11.70;99.90;;;;;;5061647;28;21192;-63
2021/05/09 03:41:28;;;;;;;7.50;6.90;;;11.70;99.90;;;;;;5071341;28;20193;-63
2021/05/09 03:43:54;;;;;;;7.80;7.00;;;11.70;99.90;;;;;;5070285;28;20205;-63
2021/05/09 03:46:19;;;;;;;7.50;6.90;;;11.60;99.90;;;;;;5068119;28;20212;-64
2021/05/09 03:48:45;;;;;;;7.23;6.57;;;11.60;99.90;;;;;;5068884;28;20435;-63
2021/05/09 03:51:11;;;;;;;7.10;6.50;;;11.60;99.90;;;;;;5069296;28;20188;-62
2021/05/09 03:53:36;;;;;;;8.00;7.20;;;11.60;99.90;;;;;;5067330;28;20188;-62
2021/05/09 03:56:02;;;;;;;7.43;6.80;;;11.60;99.90;;;;;;5069978;28;20185;-62
2021/05/09 03:58:28;;;;;;;7.10;6.60;;;11.60;99.90;;;;;;5081832;28;21060;-63
2021/05/09 04:00:53;;;;;;;7.37;6.77;;;11.60;99.90;;;;;;5076137;28;20224;-63
2021/05/09 04:03:28;;;;;;;7.53;6.93;;;11.60;99.90;;;;;;5079262;28;20212;-63
2021/05/09 04:05:54;;;;;;;7.47;6.87;;;11.60;99.90;;;;;;5077689;28;20952;-64
2021/05/09 04:08:22;;;;;;;7.97;7.30;;;11.70;99.90;;;;;;5069153;28;20884;-64
2021/05/09 04:10:48;;;;;;;7.77;7.17;;;11.70;99.90;;;;;;5067328;28;20523;-62
2021/05/09 04:13:14;;;;;;;8.07;7.37;;;11.70;99.90;;;;;;5076028;28;20443;-63
2021/05/09 04:15:40;;;;;;;7.67;7.07;;;11.70;99.90;;;;;;5067303;28;20489;-62
2021/05/09 04:18:06;;;;;;;7.50;6.90;;;11.70;99.90;;;;;;5080595;28;20188;-63
2021/05/09 04:20:32;;;;;;;6.97;6.40;;;11.80;99.90;;;;;;5067223;28;20446;-63
2021/05/09 04:23:08;;;;;;;7.10;6.57;;;11.80;99.90;;;;;;5068266;28;20459;-63
2021/05/09 04:25:33;;;;;;;7.47;6.87;;;11.90;99.90;;;;;;5066377;28;20518;-64
2021/05/09 04:27:59;;;;;;;8.13;7.43;;;11.90;99.90;;;;;;5071765;28;20841;-62
2021/05/09 04:30:25;;;;;;;8.37;7.67;;;11.90;99.90;;;;;;5078668;28;20219;-63
2021/05/09 04:33:01;;;;;;;7.53;6.93;;;11.90;99.90;;;;;;5071924;28;20658;-62
2021/05/09 04:35:27;;;;;;;7.77;7.07;;;12.00;99.90;;;;;;5074459;28;20448;-63
2021/05/09 04:37:53;;;;;;;7.40;6.80;;;12.00;99.90;;;;;;5088684;28;20932;-61
2021/05/09 04:40:19;;;;;;;7.73;7.13;;;12.00;99.90;;;;;;5078674;28;20181;-62
2021/05/09 04:42:45;;;;;;;7.70;7.00;;;12.00;99.90;;;;;;5069617;28;20511;-62
2021/05/09 04:45:11;;;;;;;7.50;6.80;;;11.90;99.90;;;;;;5073642;28;20181;-60
2021/05/09 04:47:36;;;;;;;8.30;7.60;;;11.90;99.90;;;;;;5070399;28;20230;-62
2021/05/09 04:50:03;;;;;;;7.93;7.27;;;11.90;99.90;;;;;;5076052;28;20456;-62
2021/05/09 04:52:29;;;;;;;8.10;7.40;;;11.90;99.90;;;;;;5082179;28;20188;-64
2021/05/09 04:54:54;;;;;;;7.73;7.10;;;11.90;99.90;;;;;;5075450;28;20442;-63
2021/05/09 04:57:20;;;;;;;8.27;7.60;;;12.00;99.90;;;;;;5076721;28;20197;-64
2021/05/09 04:59:45;;;;;;;8.77;8.00;;;12.00;99.90;;;;;;5076949;28;20193;-63
2021/05/09 05:02:11;;;;;;;7.97;7.37;;;12.00;99.90;;;;;;5074002;28;20520;-63
2021/05/09 05:04:36;;;;;;;8.23;7.63;;;12.00;99.90;;;;;;5077079;28;20208;-62
2021/05/09 05:07:02;;;;;;;7.83;7.13;;;12.10;99.90;;;;;;5082696;28;20704;-64
2021/05/09 05:09:27;;;;;;;8.50;7.73;;;12.10;99.90;;;;;;5071210;28;20189;-63
2021/05/09 05:11:54;;;;;;;8.10;7.40;;;12.20;99.90;;;;;;5083581;28;20251;-64
2021/05/09 05:14:20;;;;;;;8.13;7.50;;;12.20;99.90;;;;;;5077310;28;20268;-62
2021/05/09 05:16:45;;;;;;;8.27;7.50;;;12.30;99.90;;;;;;5089539;28;20635;-63
2021/05/09 05:19:11;;;;;;;7.83;7.23;;;12.30;99.90;;;;;;5076528;28;20197;-63
2021/05/09 05:21:36;;;;;;;7.60;7.00;;;12.30;99.90;;;;;;5070188;28;20545;-61
2021/05/09 05:24:02;;;;;;;7.90;7.20;;;12.40;99.90;;;;;;5064732;28;20212;-60
2021/05/09 05:26:27;;;;;;;7.17;6.67;;;12.50;99.90;;;;;;5064613;28;20180;-61
2021/05/09 05:28:53;;;;;;;7.73;7.13;;;12.50;99.90;;;;;;5071260;28;20189;-61
2021/05/09 05:31:18;;;;;;;8.50;7.70;;;12.50;99.90;;;;;;5072542;28;20177;-61
2021/05/09 05:33:44;;;;;;;7.67;7.07;;;12.50;99.90;;;;;;5070956;28;20582;-61
2021/05/09 05:36:09;;;;;;;8.13;7.43;;;12.50;99.90;;;;;;5070977;28;20197;-62
2021/05/09 05:38:35;;;;;;;7.93;7.20;;;12.50;99.90;;;;;;5069711;28;20200;-62
2021/05/09 05:41:01;;;;;;;8.17;7.50;;;12.50;99.90;;;;;;5070434;28;20330;-62
2021/05/09 05:43:29;;;;;;;7.60;7.00;;;12.60;99.90;;;;;;5070853;28;20247;-61
2021/05/09 05:45:56;;;;;;;9.03;8.37;;;12.70;99.90;;;;;;5069318;28;20212;-61
2021/05/09 05:48:22;;;;;;;8.00;7.40;;;12.70;99.90;;;;;;5070630;28;20485;-61
2021/05/09 05:50:49;;;;;;;7.60;7.00;;;12.80;99.90;;;;;;5063368;28;20446;-61
2021/05/09 05:53:19;;;;;;;7.90;7.30;;;12.90;99.90;;;;;;5071261;28;20407;-61
2021/05/09 05:55:46;;;;;;;7.53;6.83;;;13.00;99.90;;;;;;5067936;28;20446;-62
2021/05/09 05:58:13;;;;;;;7.93;7.23;;;13.00;99.90;;;;;;5070984;28;20423;-62
2021/05/09 06:00:39;;;;;;;7.30;6.80;;;13.10;99.90;;;;;;5071529;28;20553;-61
2021/05/09 06:03:05;;;;;;;8.10;7.40;;;13.10;99.90;;;;;;5072552;28;20597;-62
2021/05/09 06:05:31;;;;;;;7.33;6.73;;;13.20;99.90;;;;;;5070736;28;20706;-63
2021/05/09 06:07:56;;;;;;;8.17;7.47;;;13.30;99.90;;;;;;5071203;28;20497;-62
2021/05/09 06:10:22;;;;;;;10.40;7.83;;;13.40;99.90;;;;;;5069198;28;20489;-62
2021/05/09 06:12:48;;;;;;;7.90;7.20;;;13.50;99.90;;;;;;5071671;28;20726;-63
2021/05/09 06:15:15;;;;;;;8.17;7.47;;;13.60;99.90;;;;;;5070799;28;20190;-62
2021/05/09 06:17:41;;;;;;;8.40;7.60;;;13.70;99.90;;;;;;5071911;28;20182;-63
2021/05/09 06:20:08;;;;;;;8.47;7.67;;;13.80;99.90;;;;;;5071151;28;20404;-62
2021/05/09 06:22:33;;;;;;;8.17;7.30;;;13.80;99.90;;;;;;5076768;28;20425;-63
2021/05/09 06:24:59;;;;;;;7.57;6.90;;;14.00;99.90;;;;;;5082223;28;20465;-62
2021/05/09 06:27:24;;;;;;;7.70;7.10;;;14.00;99.90;;;;;;5083400;28;20182;-63
2021/05/09 06:29:50;;;;;;;8.73;7.93;;;14.10;99.90;;;;;;5080468;28;20185;-62
2021/05/09 06:32:15;;;;;;;9.00;8.23;;;14.20;99.90;;;;;;5078991;28;20182;-62
2021/05/09 06:34:43;;;;;;;8.50;7.70;;;14.30;99.90;;;;;;5080380;28;20235;-62
2021/05/09 06:37:11;;;;;;;8.27;7.57;;;14.30;99.90;;;;;;5080663;28;20181;-62
2021/05/09 06:39:37;;;;;;;8.23;7.53;;;14.40;99.90;;;;;;5070936;28;20449;-63
2021/05/09 06:42:03;;;;;;;8.37;7.57;;;14.60;99.90;;;;;;5071300;28;20558;-65
2021/05/09 06:44:32;;;;;;;7.97;7.30;;;14.60;99.90;;;;;;5074466;28;20469;-64
2021/05/09 06:46:59;;;;;;;7.50;6.90;;;14.80;99.90;;;;;;5083965;28;20437;-52
2021/05/09 06:49:25;;;;;;;6.77;6.20;;;14.90;99.90;;;;;;5080213;28;20441;-55
2021/05/09 06:51:50;;;;;;;7.40;6.80;;;15.00;99.90;;;;;;5076698;28;20442;-53
2021/05/09 06:54:16;;;;;;;7.00;6.40;;;15.10;99.90;;;;;;5090212;28;20177;-52
2021/05/09 06:56:41;;;;;;;7.47;6.87;;;15.20;99.90;;;;;;5075723;28;20295;-51
2021/05/09 06:59:07;;;;;;;7.33;6.70;;;15.30;99.90;;;;;;5069447;28;20659;-56
2021/05/09 07:01:33;;;;;;;6.80;6.27;;;15.40;99.90;;;;;;5067718;28;20370;-55
2021/05/09 07:03:58;;;;;;;6.97;6.47;;;15.50;99.90;;;;;;5068610;28;20550;-52
2021/05/09 07:06:24;;;;;;;6.67;6.20;;;15.70;99.90;;;;;;5069969;28;20177;-50
2021/05/09 07:08:50;;;;;;;6.90;6.30;;;15.80;99.90;;;;;;5069033;28;20637;-56
2021/05/09 07:11:15;;;;;;;6.53;6.03;;;15.90;99.90;;;;;;5068981;28;20821;-53
2021/05/09 07:13:41;;;;;;;6.43;5.93;;;16.00;99.90;;;;;;5068095;28;20289;-49
2021/05/09 07:16:07;;;;;;;6.50;6.00;;;16.10;99.90;;;;;;5067995;28;20165;-55
2021/05/09 07:18:33;;;;;;;6.60;6.20;;;16.20;99.90;;;;;;5061048;28;20264;-54
2021/05/09 07:21:01;;;;;;;6.90;6.30;;;16.30;99.90;;;;;;5061402;28;20488;-54
2021/05/09 07:23:27;;;;;;;7.67;7.07;;;16.40;99.90;;;;;;5084877;28;20451;-55
2021/05/09 07:25:53;;;;;;;7.17;6.50;;;16.50;99.90;;;;;;5089429;28;20440;-54
2021/05/09 07:28:20;;;;;;;6.60;6.10;;;16.60;99.90;;;;;;5062188;28;20525;-54
2021/05/09 07:30:47;;;;;;;6.00;5.50;;;16.80;99.90;;;;;;5069625;28;20394;-56
2021/05/09 07:33:13;;;;;;;6.00;5.60;;;17.00;99.90;;;;;;5067954;28;20452;-56
2021/05/09 07:35:40;;;;;;;6.50;6.00;;;17.10;99.90;;;;;;5069343;28;20427;-54
2021/05/09 07:38:08;;;;;;;6.07;5.57;;;17.20;99.90;;;;;;5069335;28;20434;-52
2021/05/09 07:40:33;;;;;;;5.60;5.10;;;17.50;99.90;;;;;;5056735;28;20473;-55
2021/05/09 07:42:59;;;;;;;5.10;4.80;;;17.60;99.90;;;;;;5076227;28;20480;-62
2021/05/09 07:45:25;;;;;;;4.88;4.55;;;17.80;99.90;;;;;;5074970;28;20434;-56
2021/05/09 07:47:51;;;;;;;5.00;4.60;;;18.00;99.90;;;;;;5071430;28;20266;-57
2021/05/09 07:50:19;;;;;;;5.00;4.70;;;18.20;99.90;;;;;;5082861;28;20234;-55
2021/05/09 07:52:45;;;;;;;5.20;4.80;;;18.30;99.90;;;;;;5067961;28;20470;-56
2021/05/09 07:55:12;;;;;;;4.80;4.50;;;18.40;99.90;;;;;;5070715;28;20465;-55
2021/05/09 07:57:38;;;;;;;5.20;4.90;;;18.40;99.90;;;;;;5088861;28;20467;-55
2021/05/09 08:00:07;;;;;;;4.90;4.60;;;18.50;99.90;;;;;;5080114;28;20496;-53
2021/05/09 08:02:33;;;;;;;7.77;7.07;;;18.50;99.90;;;;;;5069413;28;20184;-54
2021/05/09 08:04:59;;;;;;;5.80;5.40;;;18.70;99.90;;;;;;5064389;28;20469;-53
2021/05/09 08:07:25;;;;;;;5.10;4.70;;;18.80;99.90;;;;;;5077323;28;20448;-52
2021/05/09 08:09:50;;;;;;;6.03;5.40;;;19.00;99.90;;;;;;5072139;28;20196;-56
2021/05/09 08:12:16;;;;;;;6.30;5.80;;;19.10;99.90;;;;;;5079383;28;20195;-58
2021/05/09 08:14:41;;;;;;;5.70;5.30;;;19.30;99.90;;;;;;5073877;28;20196;-58
2021/05/09 08:17:07;;;;;;;6.63;6.13;;;19.50;99.90;;;;;;5070942;28;20200;-58
2021/05/09 08:19:32;;;;;;;6.40;5.90;;;19.60;99.90;;;;;;5068810;28;20204;-61
2021/05/09 08:22:01;;;;;;;6.87;6.27;;;19.80;99.90;;;;;;5074257;28;20545;-60
2021/05/09 08:24:27;;;;;;;6.53;6.03;;;19.90;99.90;;;;;;5068349;28;20653;-59
2021/05/09 08:26:52;;;;;;;6.90;6.30;;;20.10;99.90;;;;;;5067667;28;20437;-52
2021/05/09 08:29:18;;;;;;;6.30;5.80;;;20.30;99.90;;;;;;5065874;28;20586;-56
2021/05/09 08:31:43;;;;;;;7.10;6.50;;;20.30;99.90;;;;;;5068569;28;20196;-58
2021/05/09 08:34:09;;;;;;;6.00;5.50;;;20.30;99.90;;;;;;5069686;28;20199;-52
2021/05/09 08:36:34;;;;;;;6.20;5.80;;;20.40;99.90;;;;;;5074962;28;20227;-55
2021/05/09 08:39:00;;;;;;;5.87;5.47;;;20.50;99.90;;;;;;5064971;28;20197;-56
2021/05/09 08:41:26;;;;;;;6.47;5.97;;;20.60;99.90;;;;;;5068485;28;20197;-59
2021/05/09 08:43:52;;;;;;;5.57;5.17;;;20.60;99.90;;;;;;5067627;28;20206;-56
2021/05/09 08:46:21;;;;;;;5.70;5.30;;;20.90;99.90;;;;;;5073563;28;20427;-58
2021/05/09 08:48:48;;;;;;;5.97;5.47;;;21.00;99.90;;;;;;5075680;28;20188;-58
2021/05/09 08:51:15;;;;;;;5.33;4.93;;;21.30;99.90;;;;;;5067237;28;20462;-57
2021/05/09 08:53:43;;;;;;;5.20;4.90;;;21.50;99.90;;;;;;5068148;28;20490;-57
2021/05/09 08:56:09;;;;;;;6.10;5.70;;;21.80;99.90;;;;;;5067519;28;20442;-56
2021/05/09 08:58:37;;;;;;;5.13;4.73;;;22.20;99.90;;;;;;5058480;28;20926;-60
2021/05/09 09:01:03;;;;;;;5.43;5.07;;;22.50;99.90;;;;;;5069094;28;20908;-58
2021/05/09 09:03:30;;;;;;;5.13;4.80;;;23.10;99.90;;;;;;5072341;28;20468;-60
2021/05/09 09:05:55;;;;;;;5.30;4.90;;;23.50;99.90;;;;;;5056676;28;20181;-59
2021/05/09 09:08:21;;;;;;;4.60;4.30;;;23.60;99.90;;;;;;5069913;28;20477;-63
2021/05/09 09:10:47;;;;;;;4.63;4.40;;;23.60;99.90;;;;;;5067123;28;20543;-60
2021/05/09 09:13:25;;;;;;;4.63;4.33;;;23.50;99.90;;;;;;5067905;28;20690;-60
2021/05/09 09:16:04;;;;;;;4.43;4.20;;;23.40;99.90;;;;;;5069627;28;20438;-54
2021/05/09 09:18:43;;;;;;;4.70;4.40;;;23.40;99.90;;;;;;5067620;28;20427;-62
2021/05/09 09:21:28;;;;;;;4.40;4.10;;;23.40;99.90;;;;;;5070320;28;20798;-56
2021/05/09 09:24:06;;;;;;;4.20;4.00;;;23.60;99.90;;;;;;5073149;28;20544;-56
2021/05/09 09:26:36;;;;;;;4.60;4.30;;;24.40;99.90;;;;;;5065806;28;20423;-59
2021/05/09 09:29:28;;;;;;;3.40;3.20;;;24.80;99.90;;;;;;5070420;28;20485;-59
2021/05/09 09:31:59;;;;;;;3.73;3.53;;;24.50;99.90;;;;;;5065022;28;20415;-58
2021/05/09 09:34:38;;;;;;;3.87;3.67;;;24.30;99.90;;;;;;5069673;28;20446;-59
2021/05/09 09:37:03;;;;;;;3.87;3.67;;;24.30;99.90;;;;;;5052517;28;20538;-59
2021/05/09 09:39:55;;;;;;;3.60;3.40;;;24.20;99.90;;;;;;5066966;28;20539;-63
2021/05/09 09:42:40;;;;;;;3.90;3.70;;;24.70;99.90;;;;;;5054173;28;20525;-60
2021/05/09 09:45:13;;;;;;;4.23;3.93;;;24.80;99.90;;;;;;5054793;28;20566;-61
2021/05/09 09:48:02;;;;;;;3.70;3.50;;;24.90;99.90;;;;;;5060041;28;20439;-61
2021/05/09 09:50:40;;;;;;;4.10;3.80;;;25.20;99.90;;;;;;5055710;28;20416;-59
2021/05/09 09:53:30;;;;;;;4.10;3.90;;;25.70;99.90;;;;;;5063709;28;20438;-61
2021/05/09 09:56:23;;;;;;;4.00;3.80;;;26.10;99.90;;;;;;5072681;28;20480;-63
2021/05/09 09:58:58;;;;;;;4.50;4.20;;;26.80;99.90;;;;;;5068640;28;20496;-64
2021/05/09 10:01:32;;;;;;;4.57;4.27;;;27.40;99.90;;;;;;5068015;28;20465;-59
2021/05/09 10:03:59;;;;;;;5.17;4.77;;;27.60;99.90;;;;;;5069612;28;21297;-63
2021/05/09 10:06:27;;;;;;;4.70;4.40;;;28.00;99.90;;;;;;5071988;28;20451;-64
2021/05/09 10:08:53;;;;;;;4.20;4.00;;;28.70;99.90;;;;;;5080688;28;20791;-62
2021/05/09 10:11:19;;;;;;;4.97;4.67;;;29.00;99.90;;;;;;5069855;28;20444;-63
2021/05/09 10:13:49;;;;;;;4.27;4.07;;;29.20;99.90;;;;;;5080205;28;20418;-60
2021/05/09 10:16:20;;;;;;;4.90;4.60;;;29.30;99.90;;;;;;5069606;28;20439;-63
2021/05/09 10:18:48;;;;;;;4.40;4.20;;;29.40;99.90;;;;;;5075562;28;20410;-60
2021/05/09 10:21:15;;;;;;;4.50;4.20;;;29.70;99.90;;;;;;5069307;28;20442;-61
2021/05/09 10:24:09;;;;;;;4.60;4.20;;;30.10;99.90;;;;;;5081985;28;20458;-63
2021/05/09 10:26:48;;;;;;;4.10;3.90;;;30.80;99.90;;;;;;5072152;28;20914;-60
2021/05/09 10:29:32;;;;;;;3.90;3.70;;;30.90;99.90;;;;;;5068297;28;20467;-60
2021/05/09 10:31:58;;;;;;;4.20;3.90;;;31.40;99.90;;;;;;5066210;28;20438;-60
2021/05/09 10:34:59;;;;;;;4.73;4.43;;;30.60;99.90;;;;;;5070458;28;21231;-59
2021/05/09 10:37:45;;;;;;;4.03;3.73;;;30.30;99.90;;;;;;5075962;28;20430;-58
2021/05/09 10:40:34;;;;;;;4.17;3.87;;;30.10;99.90;;;;;;5060635;28;20430;-59
2021/05/09 10:43:02;;;;;;;3.90;3.70;;;30.40;99.90;;;;;;5068346;28;20435;-59
2021/05/09 10:45:29;;;;;;;4.13;3.83;;;30.40;99.90;;;;;;5066643;28;20435;-59
2021/05/09 10:48:13;;;;;;;3.57;3.40;;;30.50;99.90;;;;;;5064313;28;20484;-58
2021/05/09 10:50:49;;;;;;;4.10;3.80;;;30.30;99.90;;;;;;5066919;28;20544;-58
2021/05/09 10:53:52;;;;;;;3.70;3.50;;;30.10;99.90;;;;;;5067127;28;20909;-59
2021/05/09 10:56:16;;;;;;;3.40;3.20;;;30.00;99.90;;;;;;5066805;28;20438;-59
2021/05/09 10:58:48;;;;;;;3.57;3.37;;;30.30;99.90;;;;;;5068692;28;20751;-59
2021/05/09 11:01:24;;;;;;;3.50;3.30;;;30.30;99.90;;;;;;5065950;28;20741;-58
2021/05/09 11:03:51;;;;;;;3.80;3.50;;;29.60;99.90;;;;;;5066891;28;20543;-60
2021/05/09 11:06:35;;;;;;;3.80;3.60;;;29.60;99.90;;;;;;5067744;28;20439;-59
2021/05/09 11:09:00;;;;;;;4.13;3.83;;;29.70;99.90;;;;;;5065346;28;20433;-58
2021/05/09 11:11:28;;;;;;;4.90;4.50;;;29.60;99.90;;;;;;5068255;28;20434;-59
2021/05/09 11:14:08;;;;;;;3.93;3.73;;;30.40;99.90;;;;;;5061135;28;20188;-59
2021/05/09 11:16:41;;;;;;;4.00;3.80;;;30.50;99.90;;;;;;5054815;28;20420;-58
2021/05/09 11:19:11;;;;;;;3.97;3.77;;;30.60;99.90;;;;;;5054828;28;20492;-59
2021/05/09 11:21:51;;;;;;;3.83;3.53;;;30.50;99.90;;;;;;5077081;28;20438;-58
2021/05/09 11:24:30;;;;;;;3.73;3.53;;;30.60;99.90;;;;;;5067239;28;20929;-58
2021/05/09 11:27:00;;;;;;;3.93;3.63;;;30.30;99.90;;;;;;5062028;28;20736;-58
2021/05/09 11:29:27;;;;;;;4.17;3.97;;;30.10;99.90;;;;;;5077794;28;20496;-58
2021/05/09 11:32:09;;;;;;;3.70;3.50;;;30.40;99.90;;;;;;5071008;28;20493;-57
2021/05/09 11:34:35;;;;;;;3.50;3.30;;;30.70;99.90;;;;;;5066680;28;20937;-58
2021/05/09 11:37:01;;;;;;;4.43;4.03;;;31.30;99.90;;;;;;5066042;28;20423;-58
2021/05/09 11:39:38;;;;;;;4.23;4.03;;;31.40;99.90;;;;;;5066252;28;20189;-57
2021/05/09 11:42:30;;;;;;;4.50;4.30;;;30.40;99.90;;;;;;5066586;28;20442;-58
2021/05/09 11:44:57;;;;;;;4.40;4.10;;;29.90;99.90;;;;;;5062880;28;20475;-58
2021/05/09 11:47:25;;;;;;;4.30;4.00;;;29.80;99.90;;;;;;5067784;28;20980;-58
2021/05/09 11:49:58;;;;;;;4.67;4.37;;;29.60;99.90;;;;;;5077700;28;20415;-58
2021/05/09 11:52:27;;;;;;;5.10;4.70;;;29.90;99.90;;;;;;5072684;28;20506;-59
2021/05/09 11:54:58;;;;;;;5.07;4.67;;;30.70;99.90;;;;;;5067683;28;20529;-58
2021/05/09 11:57:27;;;;;;;4.77;4.37;;;31.10;99.90;;;;;;5063356;28;20991;-59
2021/05/09 11:59:56;;;;;;;4.27;3.97;;;30.70;99.90;;;;;;5067482;28;21029;-58
2021/05/09 12:02:24;;;;;;;4.67;4.37;;;30.80;99.90;;;;;;5065120;28;20459;-58
2021/05/09 12:04:56;;;;;;;4.87;4.67;;;30.70;99.90;;;;;;5055757;28;20475;-59
2021/05/09 12:07:27;;;;;;;4.80;4.50;;;31.50;99.90;;;;;;5056745;28;20995;-59
2021/05/09 12:09:57;;;;;;;4.60;4.30;;;31.60;99.90;;;;;;5055095;28;20846;-58
2021/05/09 12:12:24;;;;;;;4.20;3.90;;;31.90;99.90;;;;;;5052195;28;20486;-59
2021/05/09 12:14:53;;;;;;;4.50;4.30;;;31.50;99.90;;;;;;5048958;28;20462;-59
2021/05/09 12:17:24;;;;;;;4.73;4.40;;;31.70;99.90;;;;;;5050074;28;20439;-58
2021/05/09 12:19:50;;;;;;;4.33;4.10;;;31.80;99.90;;;;;;5048342;28;20409;-59
2021/05/09 12:22:16;;;;;;;4.60;4.30;;;32.30;99.90;;;;;;5050377;28;20447;-57
2021/05/09 12:24:56;;;;;;;4.77;4.40;;;32.30;99.90;;;;;;5052262;28;20547;-57
2021/05/09 12:27:24;;;;;;;5.93;4.47;;;32.10;99.90;;;;;;5059145;28;20189;-58
2021/05/09 12:29:54;;;;;;;5.03;4.37;;;31.40;99.90;;;;;;5054156;28;20427;-59
2021/05/09 12:32:25;;;;;;;4.87;4.47;;;31.40;99.90;;;;;;5053542;28;20951;-58
2021/05/09 12:35:16;;;;;;;4.47;4.27;;;31.20;99.90;;;;;;5052439;28;20824;-58
2021/05/09 12:37:41;;;;;;;4.20;4.00;;;30.60;99.90;;;;;;5050048;28;20435;-57
2021/05/09 12:40:18;;;;;;;4.50;4.27;;;30.80;99.90;;;;;;5060806;28;20902;-59
2021/05/09 12:43:18;;;;;;;4.47;4.27;;;30.90;99.90;;;;;;5066836;28;20269;-57
2021/05/09 12:45:46;;;;;;;4.80;4.50;;;31.50;99.90;;;;;;5071574;28;20457;-57
2021/05/09 12:48:12;;;;;;;4.63;4.33;;;31.40;99.90;;;;;;5081001;28;20985;-59
2021/05/09 12:50:49;;;;;;;4.57;4.37;;;31.30;99.90;;;;;;5066868;28;20427;-58
2021/05/09 12:53:17;;;;;;;4.80;4.50;;;31.70;99.90;;;;;;5068231;28;20256;-58
2021/05/09 12:55:43;;;;;;;4.60;4.30;;;31.40;99.90;;;;;;5070337;28;20518;-57